Time;durP1;ratioP1;P1;durP2;ratioP2;P2;SDS_P1;SDS_P2;PMS_P1;PMS_P2;Temp;Humidity;BMP_temperature;BMP_pressure;BME280_temperature;BME280_humidity;BME280_pressure;Samples;Min_cycle;Max_cycle;Signal;HPM_P1;HPM_P2
2020/12/03 00:00:39;;;;;;;23.87;12.83;;;5.50;90.20;;;;;;5055293;28;20055;-79
2020/12/03 00:13:19;;;;;;;24.27;12.63;;;5.40;90.20;;;;;;5055783;28;20036;-79
2020/12/03 00:15:59;;;;;;;21.57;12.17;;;5.50;90.20;;;;;;5055594;28;20035;-79
2020/12/03 00:18:27;;;;;;;25.80;13.20;;;5.40;90.20;;;;;;5051441;28;20047;-79
2020/12/03 00:20:53;;;;;;;21.70;12.47;;;5.50;90.20;;;;;;5054061;28;20022;-79
2020/12/03 00:23:19;;;;;;;22.90;12.20;;;5.40;90.10;;;;;;5055627;28;20107;-78
2020/12/03 00:29:07;;;;;;;23.43;13.00;;;5.40;90.10;;;;;;5051671;28;20079;-79
2020/12/03 00:31:33;;;;;;;23.53;12.33;;;5.40;90.10;;;;;;5054179;28;20048;-79
2020/12/03 00:33:59;;;;;;;24.27;13.43;;;5.40;89.90;;;;;;5055530;28;20025;-78
2020/12/03 00:36:25;;;;;;;24.83;13.30;;;5.40;90.10;;;;;;5055342;28;20032;-79
2020/12/03 00:38:51;;;;;;;24.67;12.90;;;5.50;90.00;;;;;;5055117;28;20017;-78
2020/12/03 00:41:18;;;;;;;23.80;13.37;;;5.40;89.60;;;;;;5054933;28;20037;-78
2020/12/03 00:43:45;;;;;;;23.37;12.83;;;5.40;89.60;;;;;;5055041;28;20033;-78
2020/12/03 00:46:10;;;;;;;22.40;12.60;;;5.40;90.20;;;;;;5053631;28;20496;-79
2020/12/03 00:48:37;;;;;;;22.53;12.57;;;5.40;90.00;;;;;;5054883;28;20033;-78
2020/12/03 00:51:02;;;;;;;22.33;12.60;;;5.40;90.00;;;;;;5054646;28;20053;-79
2020/12/03 00:53:28;;;;;;;24.57;13.23;;;5.40;89.90;;;;;;5055007;28;20029;-78
2020/12/03 00:55:54;;;;;;;21.50;12.90;;;5.40;89.50;;;;;;5055492;28;20021;-79
2020/12/03 00:58:19;;;;;;;22.60;12.63;;;5.40;89.50;;;;;;5054205;28;20029;-79
2020/12/03 01:00:45;;;;;;;24.33;12.20;;;5.40;90.10;;;;;;5054312;28;20025;-79
2020/12/03 01:03:11;;;;;;;23.03;13.23;;;5.40;89.70;;;;;;5055081;28;20081;-79
2020/12/03 01:05:36;;;;;;;22.50;12.57;;;5.30;90.00;;;;;;5054619;28;20025;-79
2020/12/03 01:08:02;;;;;;;21.57;12.43;;;5.40;89.80;;;;;;5054944;28;20036;-79
2020/12/03 01:10:31;;;;;;;20.63;12.50;;;5.40;89.80;;;;;;5052986;28;20028;-78
2020/12/03 01:12:57;;;;;;;22.05;12.45;;;5.40;90.00;;;;;;5059210;28;20028;-79
2020/12/03 01:15:23;;;;;;;22.97;12.40;;;5.40;90.00;;;;;;5058712;28;20041;-79
2020/12/03 01:17:49;;;;;;;21.97;12.23;;;5.40;89.70;;;;;;5059149;28;20040;-78
2020/12/03 01:20:20;;;;;;;22.23;12.43;;;5.40;90.00;;;;;;5057846;28;20398;-79
2020/12/03 01:22:46;;;;;;;24.93;12.67;;;5.40;90.00;;;;;;5059136;28;20032;-79
2020/12/03 01:25:11;;;;;;;21.53;12.47;;;5.50;89.90;;;;;;5059006;28;20025;-78
2020/12/03 01:27:38;;;;;;;23.30;12.77;;;5.50;90.00;;;;;;5059229;28;20413;-79
2020/12/03 01:30:06;;;;;;;22.90;13.00;;;5.50;89.90;;;;;;5058575;28;20036;-78
2020/12/03 01:32:32;;;;;;;23.63;13.20;;;5.50;89.50;;;;;;5059096;28;20056;-79
2020/12/03 01:34:57;;;;;;;23.93;13.20;;;5.40;89.80;;;;;;5058709;28;20033;-78
2020/12/03 01:37:23;;;;;;;23.83;12.93;;;5.40;90.00;;;;;;5059244;28;20031;-79
2020/12/03 01:39:49;;;;;;;22.07;12.63;;;5.40;90.10;;;;;;5057026;28;20112;-79
2020/12/03 01:42:15;;;;;;;23.80;13.93;;;5.40;90.00;;;;;;5059068;28;20052;-78
2020/12/03 01:44:44;;;;;;;26.60;13.60;;;5.40;90.20;;;;;;5057287;28;20107;-79
2020/12/03 01:47:18;;;;;;;23.20;13.00;;;5.40;90.20;;;;;;5058645;28;20444;-79
2020/12/03 01:49:43;;;;;;;22.90;12.60;;;5.40;90.10;;;;;;5058367;28;20533;-79
2020/12/03 01:52:09;;;;;;;22.20;12.33;;;5.40;90.30;;;;;;5058693;28;20102;-79
2020/12/03 01:54:35;;;;;;;21.50;12.97;;;5.40;90.10;;;;;;5058164;28;20021;-79
2020/12/03 01:57:03;;;;;;;23.90;13.40;;;5.40;90.20;;;;;;5058258;28;20474;-79
2020/12/03 01:59:49;;;;;;;23.43;12.87;;;5.30;90.30;;;;;;5057296;28;20032;-79
2020/12/03 02:02:16;;;;;;;21.03;12.07;;;5.30;90.20;;;;;;5056638;28;20124;-78
2020/12/03 02:04:41;;;;;;;23.80;13.17;;;5.30;90.40;;;;;;5058083;28;20028;-79
2020/12/03 02:07:13;;;;;;;23.30;13.63;;;5.30;90.60;;;;;;5057894;28;20052;-79
2020/12/03 02:09:39;;;;;;;22.50;13.10;;;5.30;90.30;;;;;;5056502;28;20029;-78
2020/12/03 02:12:06;;;;;;;21.97;13.20;;;5.30;90.30;;;;;;5057993;28;20084;-78
2020/12/03 02:14:32;;;;;;;26.90;13.77;;;5.30;90.40;;;;;;5057886;28;20040;-79
2020/12/03 02:16:57;;;;;;;21.67;12.30;;;5.40;90.30;;;;;;5057694;28;20032;-79
2020/12/03 02:19:30;;;;;;;23.13;13.00;;;5.40;90.30;;;;;;5056039;28;20037;-79
2020/12/03 02:22:07;;;;;;;23.33;12.87;;;5.30;90.40;;;;;;5057454;28;20132;-79
2020/12/03 02:24:39;;;;;;;23.20;13.13;;;5.40;90.40;;;;;;5056744;28;20040;-79
2020/12/03 02:27:06;;;;;;;22.97;13.17;;;5.40;90.20;;;;;;5057366;28;20083;-79
2020/12/03 02:29:32;;;;;;;23.23;13.37;;;5.40;90.30;;;;;;5057650;28;20048;-78
2020/12/03 02:31:57;;;;;;;21.33;12.57;;;5.40;90.60;;;;;;5056141;28;20021;-79
2020/12/03 02:34:24;;;;;;;21.77;12.57;;;5.40;90.30;;;;;;5057331;28;20470;-78
2020/12/03 02:36:52;;;;;;;22.50;12.60;;;5.40;90.40;;;;;;5056278;28;20051;-79
2020/12/03 02:39:19;;;;;;;23.67;13.03;;;5.40;90.30;;;;;;5056636;28;20032;-79
2020/12/03 02:41:45;;;;;;;23.03;13.27;;;5.30;90.80;;;;;;5056709;28;20036;-79
2020/12/03 02:44:10;;;;;;;21.50;12.97;;;5.40;90.80;;;;;;5057322;28;20033;-79
2020/12/03 02:46:36;;;;;;;21.67;12.53;;;5.40;90.70;;;;;;5056191;28;20087;-79
2020/12/03 02:49:01;;;;;;;21.90;12.50;;;5.40;90.60;;;;;;5057296;28;20524;-79
2020/12/03 02:51:27;;;;;;;23.00;12.40;;;5.40;90.70;;;;;;5057206;28;20056;-79
2020/12/03 02:53:53;;;;;;;23.33;12.57;;;5.40;90.70;;;;;;5057118;28;20029;-79
2020/12/03 02:56:18;;;;;;;21.03;12.53;;;5.40;90.60;;;;;;5057318;28;20033;-79
2020/12/03 02:58:44;;;;;;;21.33;12.27;;;5.40;90.80;;;;;;5057158;28;20029;-78
2020/12/03 03:01:09;;;;;;;21.27;12.20;;;5.40;90.80;;;;;;5056114;28;20056;-79
2020/12/03 03:03:35;;;;;;;22.10;12.83;;;5.40;90.90;;;;;;5055431;28;20115;-78
2020/12/03 03:06:01;;;;;;;22.53;12.77;;;5.40;90.90;;;;;;5056127;28;20040;-79
2020/12/03 03:08:26;;;;;;;21.97;13.07;;;5.40;90.90;;;;;;5056368;28;20025;-78
2020/12/03 03:10:52;;;;;;;23.90;13.33;;;5.30;91.00;;;;;;5055573;28;20065;-78
2020/12/03 03:13:18;;;;;;;22.33;12.63;;;5.40;91.10;;;;;;5055734;28;20029;-79
2020/12/03 03:15:44;;;;;;;21.00;12.70;;;5.40;90.90;;;;;;5056385;28;20080;-79
2020/12/03 03:18:10;;;;;;;22.20;12.53;;;5.30;90.90;;;;;;5056278;28;20036;-79
2020/12/03 03:20:36;;;;;;;22.47;12.43;;;5.30;90.80;;;;;;5054610;28;20029;-79
2020/12/03 03:23:02;;;;;;;24.20;12.63;;;5.40;91.00;;;;;;5055719;28;20029;-78
2020/12/03 03:25:28;;;;;;;20.83;12.53;;;5.40;90.80;;;;;;5055820;28;20021;-79
2020/12/03 03:27:54;;;;;;;22.03;12.83;;;5.40;90.70;;;;;;5055626;28;20025;-79
2020/12/03 03:30:20;;;;;;;20.17;12.13;;;5.40;90.70;;;;;;5055400;28;20032;-79
2020/12/03 03:32:45;;;;;;;23.37;12.93;;;5.40;90.70;;;;;;5055600;28;20029;-79
2020/12/03 03:35:14;;;;;;;20.13;12.43;;;5.40;90.90;;;;;;5055148;28;20025;-80
2020/12/03 03:37:40;;;;;;;20.27;11.90;;;5.40;91.10;;;;;;5054313;28;20320;-80
2020/12/03 03:40:05;;;;;;;21.80;12.77;;;5.40;91.00;;;;;;5053476;28;20444;-79
2020/12/03 03:42:31;;;;;;;20.93;12.83;;;5.50;91.10;;;;;;5055560;28;20470;-79
2020/12/03 03:44:57;;;;;;;22.23;12.70;;;5.40;91.10;;;;;;5055096;28;20039;-79
2020/12/03 03:47:23;;;;;;;24.10;13.20;;;5.40;91.20;;;;;;5055468;28;20031;-79
2020/12/03 03:49:48;;;;;;;21.10;12.13;;;5.40;91.10;;;;;;5053821;28;20021;-78
2020/12/03 03:52:14;;;;;;;22.43;12.90;;;5.40;91.60;;;;;;5055046;28;20451;-79
2020/12/03 03:54:40;;;;;;;22.17;12.57;;;5.30;91.40;;;;;;5055585;28;20024;-79
2020/12/03 03:57:06;;;;;;;22.17;12.67;;;5.30;91.40;;;;;;5055146;28;20032;-79
2020/12/03 03:59:31;;;;;;;21.97;12.60;;;5.30;91.40;;;;;;5054400;28;20397;-79
2020/12/03 04:01:57;;;;;;;22.63;12.60;;;5.30;91.40;;;;;;5054852;28;20603;-79
2020/12/03 04:04:23;;;;;;;21.53;12.47;;;5.30;91.20;;;;;;5055213;28;20028;-79
2020/12/03 04:06:48;;;;;;;20.60;11.80;;;5.30;91.30;;;;;;5055231;28;20047;-79
2020/12/03 04:09:14;;;;;;;21.93;12.67;;;5.30;91.20;;;;;;5054259;28;20056;-80
2020/12/03 04:11:42;;;;;;;20.10;12.20;;;5.30;91.00;;;;;;5054828;28;20032;-80
2020/12/03 04:14:08;;;;;;;19.90;11.93;;;5.30;91.10;;;;;;5054318;28;20056;-79
2020/12/03 04:16:33;;;;;;;21.87;11.80;;;5.30;91.20;;;;;;5054594;28;20466;-79
2020/12/03 04:18:59;;;;;;;22.40;12.90;;;5.30;91.10;;;;;;5053928;28;20020;-79
2020/12/03 04:21:24;;;;;;;21.83;13.23;;;5.30;91.20;;;;;;5054435;28;20306;-79
2020/12/03 04:23:50;;;;;;;20.63;12.40;;;5.30;91.10;;;;;;5054493;28;20032;-80
2020/12/03 04:26:16;;;;;;;24.17;13.07;;;5.40;91.00;;;;;;5053641;28;20108;-79
2020/12/03 04:28:41;;;;;;;20.37;12.80;;;5.30;91.10;;;;;;5054453;28;20021;-79
2020/12/03 04:31:08;;;;;;;21.27;12.20;;;5.30;91.40;;;;;;5054582;28;20028;-79
2020/12/03 04:33:34;;;;;;;19.57;11.60;;;5.40;91.10;;;;;;5054690;28;20382;-79
2020/12/03 04:36:00;;;;;;;23.53;11.67;;;5.30;90.90;;;;;;5053053;28;20036;-79
2020/12/03 04:38:26;;;;;;;19.33;11.77;;;5.30;90.80;;;;;;5053113;28;20025;-79
2020/12/03 04:40:52;;;;;;;21.50;11.53;;;5.30;90.70;;;;;;5053944;28;20032;-80
2020/12/03 04:43:36;;;;;;;20.60;11.40;;;5.30;90.70;;;;;;5054401;28;20021;-79
2020/12/03 04:46:25;;;;;;;18.23;10.27;;;5.30;91.00;;;;;;5053283;28;20025;-78
2020/12/03 04:48:57;;;;;;;21.38;11.07;;;5.30;90.70;;;;;;5053908;28;20081;-78
2020/12/03 04:51:54;;;;;;;19.93;11.47;;;5.40;90.80;;;;;;5053670;28;20050;-79
2020/12/03 04:54:52;;;;;;;19.23;10.60;;;5.40;90.60;;;;;;5053585;28;20052;-79
2020/12/03 04:57:17;;;;;;;19.13;11.10;;;5.40;90.60;;;;;;5045744;28;20627;-78
2020/12/03 05:00:01;;;;;;;17.97;11.37;;;5.30;90.70;;;;;;5052279;28;20021;-79
2020/12/03 05:03:21;;;;;;;19.00;11.40;;;5.40;90.70;;;;;;5052570;28;20036;-79
2020/12/03 05:06:27;;;;;;;19.67;10.93;;;5.40;90.70;;;;;;5012096;28;20038;-78
2020/12/03 05:08:59;;;;;;;17.33;10.97;;;5.40;90.60;;;;;;5022975;28;20060;-78
2020/12/03 05:11:30;;;;;;;17.67;11.00;;;5.40;91.00;;;;;;5054113;28;20032;-79
2020/12/03 05:14:09;;;;;;;19.50;10.80;;;5.40;90.60;;;;;;5054004;28;20070;-78
2020/12/03 05:16:58;;;;;;;16.65;10.55;;;5.40;90.60;;;;;;5054562;28;20052;-78
2020/12/03 05:19:41;;;;;;;18.15;10.40;;;5.40;90.60;;;;;;5053534;28;20033;-79
2020/12/03 05:22:18;;;;;;;21.40;11.43;;;5.40;90.60;;;;;;5054055;28;20032;-78
2020/12/03 05:24:44;;;;;;;19.67;11.23;;;5.30;90.50;;;;;;5053742;28;20504;-78
2020/12/03 05:27:28;;;;;;;18.53;10.17;;;5.30;90.60;;;;;;5054233;28;20052;-79
2020/12/03 05:29:56;;;;;;;17.77;10.53;;;5.40;90.60;;;;;;5053659;28;20466;-79
2020/12/03 05:32:21;;;;;;;18.27;10.60;;;5.40;90.70;;;;;;5052443;28;20428;-78
2020/12/03 05:34:47;;;;;;;19.10;10.33;;;5.40;90.50;;;;;;5054073;28;20029;-78
2020/12/03 05:37:15;;;;;;;20.27;10.87;;;5.30;90.80;;;;;;5054051;28;20025;-78
2020/12/03 05:39:55;;;;;;;18.23;10.40;;;5.30;90.80;;;;;;5053211;28;20029;-79
2020/12/03 05:42:36;;;;;;;17.43;10.27;;;5.40;90.70;;;;;;5053732;28;20112;-79
2020/12/03 05:45:10;;;;;;;16.90;9.80;;;5.40;90.70;;;;;;5054006;28;20025;-79
2020/12/03 05:47:41;;;;;;;16.73;9.90;;;5.40;90.50;;;;;;5054005;28;20492;-78
2020/12/03 05:50:15;;;;;;;17.30;9.70;;;5.40;90.50;;;;;;5051593;28;20029;-78
2020/12/03 05:52:41;;;;;;;17.97;10.37;;;5.40;90.60;;;;;;5053332;28;20017;-79
2020/12/03 05:55:12;;;;;;;17.57;9.90;;;5.40;90.60;;;;;;5053842;28;20032;-79
2020/12/03 05:57:43;;;;;;;17.07;9.43;;;5.40;90.30;;;;;;5055641;28;20021;-79
2020/12/03 06:00:12;;;;;;;13.87;8.77;;;5.30;90.10;;;;;;5056922;28;20094;-79
2020/12/03 06:02:45;;;;;;;17.63;9.77;;;5.40;90.30;;;;;;5056971;28;20109;-78
2020/12/03 06:05:37;;;;;;;19.57;10.17;;;5.40;90.20;;;;;;5057506;28;20477;-78
2020/12/03 06:08:12;;;;;;;17.57;9.70;;;5.40;90.20;;;;;;5057116;28;20036;-78
2020/12/03 06:11:02;;;;;;;18.07;10.13;;;5.30;90.30;;;;;;5056883;28;20469;-79
2020/12/03 06:13:40;;;;;;;18.70;9.70;;;5.40;90.10;;;;;;5056493;28;20075;-78
2020/12/03 06:16:41;;;;;;;17.67;9.43;;;5.30;90.00;;;;;;5057178;28;20045;-78
2020/12/03 06:19:39;;;;;;;15.40;9.40;;;5.40;90.10;;;;;;5056195;28;20474;-79
2020/12/03 06:22:14;;;;;;;15.23;9.23;;;5.40;90.20;;;;;;5057430;28;20029;-78
2020/12/03 06:24:51;;;;;;;17.10;9.00;;;5.40;90.00;;;;;;5058016;28;20024;-79
2020/12/03 06:27:58;;;;;;;16.43;9.83;;;5.40;90.10;;;;;;5055548;28;20025;-79
2020/12/03 06:30:33;;;;;;;16.73;9.47;;;5.40;90.30;;;;;;5035040;28;20033;-79
2020/12/03 06:33:05;;;;;;;15.37;8.70;;;5.30;90.10;;;;;;5056559;28;20047;-79
2020/12/03 06:35:55;;;;;;;16.73;9.70;;;5.30;90.10;;;;;;5055647;28;20017;-79
2020/12/03 06:38:44;;;;;;;16.13;9.03;;;5.30;90.30;;;;;;5056958;28;20025;-79
2020/12/03 06:41:50;;;;;;;16.70;8.88;;;5.40;90.10;;;;;;5055797;28;20215;-79
2020/12/03 06:44:21;;;;;;;16.30;9.30;;;5.30;89.90;;;;;;5056351;28;20103;-78
2020/12/03 06:47:17;;;;;;;15.20;8.80;;;5.30;90.10;;;;;;5056402;28;20033;-78
2020/12/03 06:49:42;;;;;;;16.50;9.07;;;5.40;90.00;;;;;;5056142;28;20078;-78
2020/12/03 06:52:34;;;;;;;17.63;9.20;;;5.40;90.00;;;;;;5056443;28;20033;-78
2020/12/03 06:55:02;;;;;;;15.00;8.73;;;5.30;89.80;;;;;;5056771;28;20040;-78
2020/12/03 06:58:07;;;;;;;15.17;8.47;;;5.40;90.00;;;;;;5056695;28;20036;-78
2020/12/03 07:01:20;;;;;;;17.13;8.90;;;5.40;89.50;;;;;;5055962;28;20111;-78
2020/12/03 07:04:38;;;;;;;17.40;8.67;;;5.30;89.80;;;;;;5056354;28;20025;-79
2020/12/03 07:07:13;;;;;;;16.35;8.45;;;5.40;89.30;;;;;;5039394;28;20063;-78
2020/12/03 07:09:50;;;;;;;14.90;8.93;;;5.30;89.50;;;;;;5055341;28;20100;-78
2020/12/03 07:12:49;;;;;;;15.67;9.07;;;5.30;89.80;;;;;;5056060;28;20021;-78
2020/12/03 07:15:39;;;;;;;15.05;8.48;;;5.30;89.50;;;;;;5050063;28;20037;-78
2020/12/03 07:18:12;;;;;;;15.77;8.50;;;5.40;89.70;;;;;;5056271;28;20032;-79
2020/12/03 07:20:59;;;;;;;14.97;8.47;;;5.40;89.50;;;;;;5056121;28;20033;-79
2020/12/03 07:24:01;;;;;;;16.90;8.83;;;5.40;89.50;;;;;;5056099;28;20043;-79
2020/12/03 07:26:29;;;;;;;17.00;8.70;;;5.40;89.80;;;;;;5055637;28;20029;-78
2020/12/03 07:28:59;;;;;;;14.30;7.67;;;5.40;89.10;;;;;;5055420;28;20024;-79
2020/12/03 07:31:37;;;;;;;18.20;8.23;;;5.40;88.90;;;;;;5055860;28;20021;-79
2020/12/03 07:34:27;;;;;;;15.70;8.17;;;5.40;88.90;;;;;;5055102;28;20464;-79
2020/12/03 07:37:21;;;;;;;15.13;8.70;;;5.30;89.60;;;;;;5056434;28;20032;-79
2020/12/03 07:39:50;;;;;;;14.67;8.40;;;5.30;89.30;;;;;;5053600;28;20037;-79
2020/12/03 07:42:19;;;;;;;15.05;8.25;;;5.30;89.20;;;;;;5055924;28;20217;-80
2020/12/03 07:44:53;;;;;;;16.40;8.25;;;5.30;89.80;;;;;;5055594;28;20029;-78
2020/12/03 07:47:37;;;;;;;17.73;9.40;;;5.30;89.50;;;;;;5055833;28;20105;-78
2020/12/03 07:50:07;;;;;;;15.00;8.20;;;5.30;89.50;;;;;;5055364;28;20040;-80
2020/12/03 07:52:36;;;;;;;14.00;8.07;;;5.30;90.00;;;;;;5055612;28;20025;-79
2020/12/03 07:55:37;;;;;;;16.50;8.40;;;5.30;89.60;;;;;;5055387;28;20074;-78
2020/12/03 07:58:04;;;;;;;17.13;8.20;;;5.30;89.60;;;;;;5033359;28;20078;-78
2020/12/03 08:00:30;;;;;;;13.50;7.90;;;5.30;89.70;;;;;;5055062;28;20021;-81
2020/12/03 08:02:57;;;;;;;14.90;8.50;;;5.30;89.70;;;;;;5055934;28;20040;-80
2020/12/03 08:05:57;;;;;;;15.63;8.47;;;5.30;89.70;;;;;;5053977;28;20048;-81
2020/12/03 08:08:34;;;;;;;18.83;8.93;;;5.30;89.30;;;;;;5054837;28;20021;-80
2020/12/03 08:11:00;;;;;;;14.57;8.07;;;5.30;89.40;;;;;;5054471;28;20018;-81
2020/12/03 08:13:28;;;;;;;15.70;8.30;;;5.20;89.30;;;;;;5054970;28;20032;-80
2020/12/03 08:16:00;;;;;;;15.83;8.80;;;5.20;89.40;;;;;;5054157;28;20385;-80
2020/12/03 08:18:38;;;;;;;14.10;7.83;;;5.20;89.90;;;;;;5054598;28;20499;-80
2020/12/03 08:21:04;;;;;;;13.80;7.70;;;5.20;90.10;;;;;;5053646;28;20036;-80
2020/12/03 08:23:30;;;;;;;15.30;8.17;;;5.20;89.70;;;;;;5054050;28;20028;-80
2020/12/03 08:25:56;;;;;;;17.47;8.07;;;5.20;89.70;;;;;;5054171;28;20079;-80
2020/12/03 08:28:26;;;;;;;18.50;9.10;;;5.20;89.20;;;;;;5052696;28;20033;-80
2020/12/03 08:30:52;;;;;;;15.27;7.87;;;5.20;89.40;;;;;;5054122;28;20036;-81
2020/12/03 08:33:32;;;;;;;16.47;9.40;;;5.10;89.50;;;;;;5052980;28;20049;-80
2020/12/03 08:36:01;;;;;;;15.90;8.13;;;5.20;89.90;;;;;;5054762;28;20029;-80
2020/12/03 08:38:39;;;;;;;18.02;9.20;;;5.20;89.70;;;;;;5054351;28;20021;-80
2020/12/03 08:41:12;;;;;;;14.37;8.07;;;5.20;89.20;;;;;;5053536;28;20063;-80
2020/12/03 08:43:42;;;;;;;16.97;8.47;;;5.10;89.30;;;;;;5053964;28;20713;-79
2020/12/03 08:46:15;;;;;;;16.57;8.70;;;5.10;89.40;;;;;;5054275;28;20039;-79
2020/12/03 08:48:42;;;;;;;14.83;7.77;;;5.20;89.40;;;;;;5054126;28;20053;-80
2020/12/03 08:51:11;;;;;;;15.30;8.47;;;5.20;89.00;;;;;;5053285;28;20021;-80
2020/12/03 08:53:38;;;;;;;16.17;8.15;;;5.10;88.80;;;;;;5054403;28;20036;-80
2020/12/03 08:56:08;;;;;;;14.80;8.03;;;5.10;88.80;;;;;;5054724;28;20034;-80
2020/12/03 08:58:36;;;;;;;19.07;9.23;;;5.10;89.00;;;;;;5056074;28;20135;-80
2020/12/03 09:01:03;;;;;;;17.47;8.60;;;5.20;89.40;;;;;;5055625;28;20036;-80
2020/12/03 09:03:32;;;;;;;17.73;7.97;;;5.20;89.10;;;;;;5055481;28;20025;-81
2020/12/03 09:05:58;;;;;;;16.95;8.77;;;5.20;88.80;;;;;;5053024;28;20029;-80
2020/12/03 09:08:24;;;;;;;16.57;8.37;;;5.10;89.00;;;;;;5055154;28;20021;-80
2020/12/03 09:10:53;;;;;;;20.60;8.43;;;5.20;89.20;;;;;;5055805;28;20063;-80
2020/12/03 09:13:19;;;;;;;16.00;8.23;;;5.10;89.00;;;;;;5057601;28;20033;-79
2020/12/03 09:15:46;;;;;;;17.00;9.10;;;5.10;88.90;;;;;;5057356;28;20056;-80
2020/12/03 09:18:13;;;;;;;16.20;8.53;;;5.20;89.80;;;;;;5056304;28;20108;-80
2020/12/03 09:20:44;;;;;;;14.83;8.13;;;5.20;89.10;;;;;;5055398;28;20067;-80
2020/12/03 09:23:18;;;;;;;18.10;8.57;;;5.20;89.00;;;;;;5056371;28;20021;-80
2020/12/03 09:25:44;;;;;;;15.97;8.20;;;5.20;89.20;;;;;;5055745;28;20070;-79
2020/12/03 09:28:10;;;;;;;16.83;9.57;;;5.20;90.00;;;;;;5055722;28;20496;-80
2020/12/03 09:30:38;;;;;;;17.67;8.80;;;5.20;89.40;;;;;;5054445;28;20119;-80
2020/12/03 09:33:06;;;;;;;14.50;8.00;;;5.30;89.60;;;;;;5058081;28;20036;-80
2020/12/03 09:35:33;;;;;;;15.40;8.10;;;5.30;89.30;;;;;;5060148;28;20104;-80
2020/12/03 09:38:05;;;;;;;13.90;7.97;;;5.20;88.50;;;;;;5059983;28;20058;-79
2020/12/03 09:40:33;;;;;;;14.83;8.17;;;5.30;89.00;;;;;;5059623;28;20100;-80
2020/12/03 09:42:59;;;;;;;13.17;7.07;;;5.20;88.40;;;;;;5059448;28;20109;-80
2020/12/03 09:45:41;;;;;;;14.63;7.97;;;5.30;88.50;;;;;;5060014;28;20053;-80
2020/12/03 09:48:16;;;;;;;14.90;7.80;;;5.20;88.70;;;;;;5059858;28;20036;-80
2020/12/03 09:50:43;;;;;;;14.60;7.90;;;5.30;88.80;;;;;;5059033;28;20116;-80
2020/12/03 09:53:19;;;;;;;18.47;8.67;;;5.20;88.20;;;;;;5059517;28;20016;-80
2020/12/03 09:55:46;;;;;;;16.77;8.47;;;5.30;88.60;;;;;;5058858;28;20079;-80
2020/12/03 09:58:16;;;;;;;13.90;8.17;;;5.30;89.00;;;;;;5058937;28;20025;-80
2020/12/03 10:00:45;;;;;;;14.93;7.73;;;5.30;88.70;;;;;;5059727;28;20017;-80
2020/12/03 10:03:29;;;;;;;14.57;7.80;;;5.30;89.10;;;;;;5059220;28;20302;-80
2020/12/03 10:06:01;;;;;;;14.63;7.60;;;5.40;88.50;;;;;;5059375;28;20255;-80
2020/12/03 10:08:49;;;;;;;12.00;7.47;;;5.40;88.60;;;;;;5058745;28;20025;-80
2020/12/03 10:11:57;;;;;;;15.87;7.70;;;5.40;88.20;;;;;;5058427;28;20071;-80
2020/12/03 10:14:48;;;;;;;13.27;7.80;;;5.40;88.40;;;;;;5047303;28;20053;-80
2020/12/03 10:17:18;;;;;;;14.07;7.83;;;5.50;88.30;;;;;;5058778;28;20021;-80
2020/12/03 10:19:46;;;;;;;14.80;7.90;;;5.50;88.10;;;;;;5058377;28;20021;-80
2020/12/03 10:22:23;;;;;;;13.50;7.77;;;5.40;88.20;;;;;;5058151;28;20056;-80
2020/12/03 10:25:17;;;;;;;13.17;8.03;;;5.40;88.50;;;;;;5058496;28;20104;-80
2020/12/03 10:28:05;;;;;;;13.40;7.77;;;5.40;88.70;;;;;;5058535;28;20100;-80
2020/12/03 10:30:37;;;;;;;12.27;7.25;;;5.40;88.80;;;;;;5051226;28;20116;-80
2020/12/03 10:33:08;;;;;;;15.43;7.83;;;5.50;89.20;;;;;;5057398;28;20048;-80
2020/12/03 10:35:39;;;;;;;15.17;8.43;;;5.50;89.20;;;;;;5056709;28;20503;-80
2020/12/03 10:38:10;;;;;;;15.47;8.23;;;5.50;88.70;;;;;;5058084;28;20461;-80
2020/12/03 10:40:36;;;;;;;12.93;7.53;;;5.50;88.60;;;;;;5057816;28;20496;-80
2020/12/03 10:43:04;;;;;;;16.00;8.07;;;5.40;88.40;;;;;;5057764;28;20025;-80
2020/12/03 10:45:33;;;;;;;14.43;8.23;;;5.40;89.10;;;;;;5058525;28;20462;-80
2020/12/03 10:48:06;;;;;;;15.45;8.02;;;5.40;88.80;;;;;;5058649;28;20024;-80
2020/12/03 10:50:47;;;;;;;14.93;8.00;;;5.40;88.50;;;;;;5057762;28;20021;-79
2020/12/03 10:53:16;;;;;;;15.47;8.23;;;5.40;89.60;;;;;;5057092;28;20021;-80
2020/12/03 10:55:43;;;;;;;17.00;8.40;;;5.40;90.00;;;;;;5058614;28;20029;-80
2020/12/03 10:58:11;;;;;;;15.83;8.73;;;5.40;89.80;;;;;;5058553;28;20370;-79
2020/12/03 11:00:39;;;;;;;14.00;8.13;;;5.40;90.00;;;;;;5056484;28;20478;-80
2020/12/03 11:03:10;;;;;;;14.07;7.33;;;5.40;89.70;;;;;;5057890;28;20108;-80
2020/12/03 11:05:36;;;;;;;14.53;7.97;;;5.40;89.70;;;;;;5057495;28;20492;-80
2020/12/03 11:08:02;;;;;;;16.57;8.47;;;5.40;89.80;;;;;;5056729;28;20021;-80
2020/12/03 11:10:28;;;;;;;16.27;8.43;;;5.40;90.00;;;;;;5057356;28;20040;-80
2020/12/03 11:12:59;;;;;;;14.30;7.93;;;5.40;90.00;;;;;;5057967;28;20036;-80
2020/12/03 11:15:28;;;;;;;15.23;8.00;;;5.40;89.90;;;;;;5057711;28;20032;-80
2020/12/03 11:18:06;;;;;;;14.07;8.20;;;5.50;89.80;;;;;;5058046;28;20021;-80
2020/12/03 11:20:35;;;;;;;14.67;8.00;;;5.40;89.20;;;;;;5055990;28;20029;-80
2020/12/03 11:23:04;;;;;;;15.93;8.40;;;5.40;89.90;;;;;;5057711;28;20104;-80
2020/12/03 11:25:31;;;;;;;16.70;9.27;;;5.40;90.20;;;;;;5056551;28;20029;-80
2020/12/03 11:28:03;;;;;;;15.27;8.53;;;5.40;89.50;;;;;;5058249;28;20024;-80
2020/12/03 11:30:31;;;;;;;16.03;9.20;;;5.40;89.70;;;;;;5057564;28;20025;-80
2020/12/03 11:32:57;;;;;;;14.20;8.30;;;5.50;89.80;;;;;;5056139;28;20059;-79
2020/12/03 11:35:28;;;;;;;17.00;8.80;;;5.40;89.80;;;;;;5056468;28;20021;-80
2020/12/03 11:37:55;;;;;;;15.63;8.63;;;5.50;90.00;;;;;;5058135;28;20017;-80
2020/12/03 11:40:49;;;;;;;18.03;9.20;;;5.50;90.20;;;;;;5057718;28;20047;-80
2020/12/03 11:48:42;;;;;;;17.70;9.43;;;5.50;90.00;;;;;;5057548;28;20021;-80
2020/12/03 11:51:07;;;;;;;15.60;9.07;;;5.60;89.90;;;;;;5055054;28;20025;-79
2020/12/03 11:53:33;;;;;;;16.10;8.63;;;5.60;90.00;;;;;;5056931;28;20040;-81
2020/12/03 11:55:59;;;;;;;13.97;8.50;;;5.60;89.50;;;;;;5056675;28;20063;-80
2020/12/03 11:58:30;;;;;;;13.43;7.87;;;5.60;89.50;;;;;;5056960;28;20024;-80
2020/12/03 12:01:12;;;;;;;17.07;8.87;;;5.50;89.10;;;;;;5056722;28;20031;-80
2020/12/03 12:03:41;;;;;;;13.83;7.70;;;5.60;89.10;;;;;;5057128;28;20440;-80
2020/12/03 12:06:16;;;;;;;15.20;8.18;;;5.60;89.50;;;;;;5057644;28;20035;-80
2020/12/03 12:09:12;;;;;;;16.67;8.37;;;5.60;88.80;;;;;;5056945;28;20499;-80
2020/12/03 12:11:33;;;;;;;14.70;7.77;;;5.60;88.50;;;;;;5056828;28;20071;-80
2020/12/03 12:13:59;;;;;;;16.93;8.63;;;5.60;89.30;;;;;;5056918;28;20063;-80
2020/12/03 12:16:25;;;;;;;13.63;7.47;;;5.50;88.70;;;;;;5057090;28;20033;-80
2020/12/03 12:18:51;;;;;;;16.07;8.57;;;5.60;88.70;;;;;;5055917;28;20036;-80
2020/12/03 12:21:17;;;;;;;14.53;8.40;;;5.60;88.80;;;;;;5055422;28;20027;-80
2020/12/03 12:23:43;;;;;;;16.37;8.77;;;5.60;88.20;;;;;;5057033;28;20025;-80
2020/12/03 12:26:08;;;;;;;16.60;8.50;;;5.60;88.60;;;;;;5057017;28;20426;-80
2020/12/03 12:28:34;;;;;;;15.87;7.53;;;5.60;88.50;;;;;;5056873;28;20028;-80
2020/12/03 12:30:59;;;;;;;15.23;8.07;;;5.70;88.70;;;;;;5054908;28;20017;-80
2020/12/03 12:33:25;;;;;;;14.37;8.37;;;5.70;87.70;;;;;;5056588;28;20029;-80
2020/12/03 12:35:51;;;;;;;15.50;8.13;;;5.70;86.90;;;;;;5056313;28;20556;-80
2020/12/03 12:38:16;;;;;;;14.10;8.07;;;5.70;87.80;;;;;;5056911;28;20063;-80
2020/12/03 12:40:42;;;;;;;15.40;8.47;;;5.70;88.30;;;;;;5054968;28;20033;-80
2020/12/03 12:43:08;;;;;;;17.00;7.77;;;5.70;87.00;;;;;;5056177;28;20330;-80
2020/12/03 12:45:33;;;;;;;13.97;8.00;;;5.60;87.50;;;;;;5056167;28;20067;-80
2020/12/03 12:47:59;;;;;;;15.77;8.40;;;5.70;87.90;;;;;;5056190;28;20371;-80
2020/12/03 12:50:25;;;;;;;13.47;7.97;;;5.70;87.80;;;;;;5055101;28;20029;-80
2020/12/03 12:52:50;;;;;;;13.27;7.07;;;5.80;87.90;;;;;;5056102;28;20032;-80
2020/12/03 12:55:16;;;;;;;14.53;7.60;;;5.70;87.70;;;;;;5054706;28;20468;-80
2020/12/03 12:57:42;;;;;;;14.37;7.70;;;5.70;87.70;;;;;;5054712;28;20029;-80
2020/12/03 13:00:08;;;;;;;16.23;7.80;;;5.80;87.80;;;;;;5054952;28;20032;-81
2020/12/03 13:02:33;;;;;;;14.40;7.10;;;5.80;87.40;;;;;;5056614;28;20021;-80
2020/12/03 13:04:59;;;;;;;13.90;7.13;;;5.80;86.80;;;;;;5055919;28;20025;-79
2020/12/03 13:07:25;;;;;;;12.90;6.77;;;5.80;86.90;;;;;;5054877;28;20025;-80
2020/12/03 13:09:50;;;;;;;14.27;6.60;;;5.80;86.50;;;;;;5055746;28;20100;-80
2020/12/03 13:12:17;;;;;;;11.87;6.70;;;5.80;86.70;;;;;;5054501;28;20029;-81
2020/12/03 13:14:42;;;;;;;13.37;7.20;;;5.80;86.60;;;;;;5055092;28;20029;-80
2020/12/03 13:17:08;;;;;;;14.87;7.27;;;5.70;86.50;;;;;;5054670;28;20477;-80
2020/12/03 13:19:34;;;;;;;15.07;7.50;;;5.70;86.50;;;;;;5053393;28;20029;-80
2020/12/03 13:22:00;;;;;;;12.53;6.73;;;5.80;86.10;;;;;;5055074;28;20021;-80
2020/12/03 13:24:26;;;;;;;13.87;7.60;;;5.80;86.50;;;;;;5055162;28;20092;-80